createdAt,value
2022-11-04T00:00:34.978Z,10.73
2022-11-04T00:03:03.272Z,11.40
2022-11-04T00:05:30.075Z,11.77
2022-11-04T00:08:15.579Z,10.97
2022-11-04T00:11:00.838Z,11.00
2022-11-04T00:13:30.758Z,11.20
2022-11-04T00:16:20.084Z,11.10
2022-11-04T00:18:46.895Z,10.33
2022-11-04T00:21:32.222Z,10.70
2022-11-04T00:24:17.457Z,11.17
2022-11-04T00:27:10.381Z,10.60
2022-11-04T00:29:37.258Z,9.97
2022-11-04T00:32:22.632Z,10.40
2022-11-04T00:34:49.442Z,10.67
2022-11-04T00:37:16.405Z,11.40
2022-11-04T00:39:43.185Z,10.20
2022-11-04T00:42:10.364Z,10.07
2022-11-04T00:44:37.272Z,9.57
2022-11-04T00:47:04.202Z,9.93
2022-11-04T00:49:31.069Z,9.63
2022-11-04T00:51:57.915Z,9.50
2022-11-04T00:54:24.867Z,10.03
2022-11-04T00:56:53.779Z,9.70
2022-11-04T00:59:20.687Z,9.37
2022-11-04T01:01:47.796Z,9.50
2022-11-04T01:04:14.845Z,9.60
2022-11-04T01:06:41.713Z,9.33
2022-11-04T01:09:11.907Z,9.30
2022-11-04T01:11:38.934Z,9.80
2022-11-04T01:14:05.805Z,9.60
2022-11-04T01:16:33.437Z,10.30
2022-11-04T01:19:00.447Z,9.73
2022-11-04T01:21:27.369Z,10.03
2022-11-04T01:23:54.346Z,10.17
2022-11-04T01:26:24.090Z,9.43
2022-11-04T01:28:53.155Z,10.10
2022-11-04T01:31:22.815Z,9.70
2022-11-04T01:33:51.317Z,9.90
2022-11-04T01:36:18.772Z,10.07
2022-11-04T01:38:45.936Z,9.70
2022-11-04T01:41:23.581Z,10.30
2022-11-04T01:43:54.810Z,9.53
2022-11-04T01:46:45.789Z,9.63
2022-11-04T01:49:25.019Z,9.87
2022-11-04T01:51:56.975Z,10.17
2022-11-04T01:54:23.917Z,9.67
2022-11-04T01:56:51.724Z,10.23
2022-11-04T01:59:27.239Z,10.13
2022-11-04T02:01:54.478Z,9.57
2022-11-04T02:04:27.983Z,9.73
2022-11-04T02:07:07.119Z,9.20
2022-11-04T02:09:35.542Z,10.30
2022-11-04T02:12:21.007Z,9.30
2022-11-04T02:14:49.935Z,9.20
2022-11-04T02:17:19.494Z,9.30
2022-11-04T02:20:16.733Z,9.50
2022-11-04T02:22:59.884Z,9.67
2022-11-04T02:25:52.969Z,9.33
2022-11-04T02:28:38.261Z,10.27
2022-11-04T02:31:31.316Z,9.80
2022-11-04T02:34:18.345Z,9.83
2022-11-04T02:37:09.381Z,8.53
2022-11-04T02:39:59.698Z,9.50
2022-11-04T02:42:37.884Z,9.53
2022-11-04T02:45:17.050Z,9.73
2022-11-04T02:47:49.402Z,8.83
2022-11-04T02:50:51.145Z,8.63
2022-11-04T02:53:28.840Z,8.60
2022-11-04T02:55:58.724Z,8.63
2022-11-04T02:58:34.533Z,8.73
2022-11-04T03:01:03.934Z,8.20
2022-11-04T03:03:39.685Z,8.27
2022-11-04T03:06:09.885Z,8.60
2022-11-04T03:08:43.637Z,8.97
2022-11-04T03:11:17.056Z,8.30
2022-11-04T03:14:08.827Z,8.17
2022-11-04T03:16:44.406Z,8.03
2022-11-04T03:19:33.322Z,8.17
2022-11-04T03:22:06.678Z,8.37
2022-11-04T03:24:33.504Z,8.77
2022-11-04T03:27:18.216Z,8.63
2022-11-04T03:29:50.442Z,8.20
2022-11-04T03:32:24.378Z,8.77
2022-11-04T03:34:51.892Z,8.27
2022-11-04T03:37:18.887Z,8.70
2022-11-04T03:39:45.815Z,8.07
2022-11-04T03:42:20.619Z,8.40
2022-11-04T03:44:53.256Z,8.30
2022-11-04T03:47:23.202Z,8.10
2022-11-04T03:49:52.419Z,8.10
2022-11-04T03:52:20.030Z,8.37
2022-11-04T03:54:47.595Z,8.70
2022-11-04T03:57:29.403Z,8.80
2022-11-04T04:00:10.923Z,8.03
2022-11-04T04:03:01.795Z,8.13
2022-11-04T04:05:39.934Z,8.00
2022-11-04T04:08:39.630Z,8.30
2022-11-04T04:11:37.346Z,8.40
2022-11-04T04:14:37.895Z,7.90
2022-11-04T04:17:32.074Z,7.67
2022-11-04T04:20:05.641Z,7.97
2022-11-04T04:22:43.314Z,8.13
2022-11-04T04:25:31.644Z,8.37
2022-11-04T04:28:00.254Z,7.57
2022-11-04T04:30:27.625Z,7.87
2022-11-04T04:33:08.226Z,7.87
2022-11-04T04:35:44.656Z,8.10
2022-11-04T04:38:45.081Z,7.80
2022-11-04T04:41:49.014Z,7.97
2022-11-04T04:44:47.972Z,7.83
2022-11-04T04:47:20.226Z,8.03
2022-11-04T04:49:55.337Z,7.70
2022-11-04T04:52:24.428Z,7.57
2022-11-04T04:54:51.445Z,7.70
2022-11-04T04:57:18.410Z,7.73
2022-11-04T04:59:45.436Z,8.10
2022-11-04T05:02:12.647Z,7.67
2022-11-04T05:04:39.920Z,7.17
2022-11-04T05:07:10.109Z,6.83
2022-11-04T05:09:37.579Z,7.80
2022-11-04T05:12:04.705Z,7.27
2022-11-04T05:14:31.908Z,7.50
2022-11-04T05:16:59.546Z,6.93
2022-11-04T05:19:26.386Z,7.27
2022-11-04T05:21:53.301Z,8.00
2022-11-04T05:24:20.360Z,7.63
2022-11-04T05:26:47.229Z,7.57
2022-11-04T05:31:47.428Z,8.17
2022-11-04T05:34:14.492Z,7.47
2022-11-04T05:36:41.643Z,8.23
2022-11-04T05:39:14.730Z,7.73
2022-11-04T05:41:41.623Z,7.10
2022-11-04T05:44:10.722Z,7.20
2022-11-04T05:46:37.698Z,7.50
2022-11-04T05:49:05.212Z,6.73
2022-11-04T05:51:32.634Z,7.20
2022-11-04T05:54:00.206Z,7.60
2022-11-04T05:56:27.290Z,6.63
2022-11-04T05:58:55.686Z,6.50
2022-11-04T06:01:30.932Z,7.60
2022-11-04T06:03:59.243Z,7.33
2022-11-04T06:06:28.677Z,7.03
2022-11-04T06:08:55.958Z,7.00
2022-11-04T06:11:24.443Z,7.00
2022-11-04T06:13:51.855Z,6.87
2022-11-04T06:16:18.977Z,6.93
2022-11-04T06:18:45.827Z,6.90
2022-11-04T06:21:15.669Z,6.33
2022-11-04T06:23:43.236Z,6.87
2022-11-04T06:26:11.574Z,6.93
2022-11-04T06:28:39.176Z,6.53
2022-11-04T06:31:08.543Z,6.97
2022-11-04T06:33:37.134Z,6.50
2022-11-04T06:36:07.810Z,7.40
2022-11-04T06:38:37.692Z,6.57
2022-11-04T06:43:38.351Z,6.40
2022-11-04T06:46:05.349Z,7.03
2022-11-04T06:48:32.575Z,6.90
2022-11-04T06:51:00.719Z,7.43
2022-11-04T06:53:29.305Z,6.80
2022-11-04T06:56:04.088Z,7.73
2022-11-04T06:58:31.140Z,7.07
2022-11-04T07:00:58.250Z,6.97
2022-11-04T07:03:25.496Z,7.17
2022-11-04T07:05:52.255Z,6.47
2022-11-04T07:08:19.265Z,6.40
2022-11-04T07:10:46.156Z,6.50
2022-11-04T07:13:12.991Z,6.53
2022-11-04T07:15:40.270Z,6.63
2022-11-04T07:18:07.474Z,6.67
2022-11-04T07:20:36.664Z,6.77
2022-11-04T07:23:03.771Z,6.97
2022-11-04T07:25:30.665Z,6.83
2022-11-04T07:28:01.127Z,6.93
2022-11-04T07:30:29.610Z,6.47
2022-11-04T07:32:56.495Z,6.97
2022-11-04T07:35:23.396Z,6.37
2022-11-04T07:37:50.629Z,7.00
2022-11-04T07:40:17.634Z,7.00
2022-11-04T07:42:44.430Z,6.50
2022-11-04T07:45:11.285Z,7.57
2022-11-04T07:47:38.297Z,6.60
2022-11-04T07:50:10.689Z,7.30
2022-11-04T07:52:38.336Z,7.40
2022-11-04T07:55:05.990Z,7.67
2022-11-04T07:57:32.806Z,7.13
2022-11-04T07:59:59.761Z,7.33
2022-11-04T08:02:31.097Z,7.17
2022-11-04T08:05:00.969Z,7.33
2022-11-04T08:07:27.743Z,7.40
2022-11-04T08:09:54.959Z,7.33
2022-11-04T08:12:23.874Z,7.40
2022-11-04T08:14:51.421Z,7.43
2022-11-04T08:17:18.212Z,7.57
2022-11-04T08:19:45.146Z,7.87
2022-11-04T08:22:12.273Z,11.40
2022-11-04T08:24:39.530Z,8.90
2022-11-04T08:27:10.102Z,7.77
2022-11-04T08:29:37.692Z,7.23
2022-11-04T08:32:04.768Z,7.30
2022-11-04T08:34:31.557Z,7.72
2022-11-04T08:37:00.239Z,7.90
2022-11-04T08:39:27.313Z,8.80
2022-11-04T08:41:54.121Z,7.80
2022-11-04T08:44:21.052Z,7.67
2022-11-04T08:46:48.513Z,7.90
2022-11-04T08:49:20.774Z,7.37
2022-11-04T08:51:55.080Z,7.03
2022-11-04T08:54:22.433Z,7.47
2022-11-04T08:56:49.668Z,8.60
2022-11-04T08:59:17.285Z,7.63
2022-11-04T09:01:44.575Z,7.20
2022-11-04T09:04:13.042Z,7.30
2022-11-04T09:06:43.451Z,7.60
2022-11-04T09:09:14.852Z,7.27
2022-11-04T09:11:44.425Z,7.27
2022-11-04T09:14:12.261Z,7.63
2022-11-04T09:16:40.673Z,7.07
2022-11-04T09:19:07.741Z,7.40
2022-11-04T09:21:34.841Z,7.17
2022-11-04T09:24:01.660Z,7.40
2022-11-04T09:26:29.051Z,6.93
2022-11-04T09:28:58.040Z,7.20
2022-11-04T09:31:30.260Z,6.90
2022-11-04T09:33:57.592Z,6.47
2022-11-04T09:36:24.860Z,6.97
2022-11-04T09:38:51.943Z,7.33
2022-11-04T09:41:21.553Z,6.73
2022-11-04T09:44:03.260Z,7.50
2022-11-04T09:46:33.035Z,6.80
2022-11-04T09:49:05.589Z,7.10
2022-11-04T09:51:53.045Z,8.02
2022-11-04T09:54:22.326Z,7.10
2022-11-04T09:56:51.515Z,7.50
2022-11-04T09:59:27.222Z,6.93
2022-11-04T10:02:22.099Z,6.40
2022-11-04T10:05:37.986Z,7.00
2022-11-04T10:08:41.620Z,7.10
2022-11-04T10:11:21.199Z,7.03
2022-11-04T10:13:51.265Z,7.23
2022-11-04T10:16:45.026Z,7.13
2022-11-04T10:19:46.930Z,7.07
2022-11-04T10:22:31.272Z,6.87
2022-11-04T10:25:03.797Z,7.40
2022-11-04T10:27:34.749Z,6.67
2022-11-04T10:30:12.582Z,6.90
2022-11-04T10:33:01.467Z,7.23
2022-11-04T10:35:31.111Z,6.60
2022-11-04T10:38:08.198Z,6.50
2022-11-04T10:40:39.519Z,7.00
2022-11-04T10:43:10.832Z,6.73
2022-11-04T10:45:46.803Z,6.83
2022-11-04T10:48:21.529Z,7.03
2022-11-04T10:50:55.749Z,6.53
2022-11-04T10:53:28.572Z,6.83
2022-11-04T10:56:18.278Z,6.70
2022-11-04T10:58:48.647Z,6.43
2022-11-04T11:01:29.670Z,6.50
2022-11-04T11:03:57.384Z,6.50
2022-11-04T11:06:30.734Z,6.37
2022-11-04T11:09:19.720Z,6.57
2022-11-04T11:11:49.331Z,6.90
2022-11-04T11:14:28.349Z,7.00
2022-11-04T11:17:14.633Z,6.60
2022-11-04T11:19:53.912Z,7.00
2022-11-04T11:22:48.841Z,6.23
2022-11-04T11:25:28.698Z,7.37
2022-11-04T11:27:55.523Z,7.33
2022-11-04T11:30:29.055Z,6.53
2022-11-04T11:33:37.961Z,6.07
2022-11-04T11:36:16.660Z,6.37
2022-11-04T11:39:04.226Z,6.17
2022-11-04T11:41:33.717Z,6.03
2022-11-04T11:44:36.171Z,6.07
2022-11-04T11:47:09.085Z,5.80
2022-11-04T11:49:38.226Z,6.00
2022-11-04T11:52:29.906Z,6.27
2022-11-04T11:55:13.001Z,6.47
2022-11-04T12:01:23.910Z,5.83
2022-11-04T12:09:57.769Z,6.67
2022-11-04T12:12:55.503Z,6.37
2022-11-04T12:15:47.515Z,6.80
2022-11-04T12:18:42.219Z,6.47
2022-11-04T12:21:22.050Z,6.50
2022-11-04T12:24:22.066Z,6.53
2022-11-04T12:27:19.035Z,6.03
2022-11-04T12:30:07.216Z,6.37
2022-11-04T12:32:55.511Z,6.07
2022-11-04T12:35:37.502Z,6.33
2022-11-04T12:38:22.571Z,5.70
2022-11-04T12:43:52.877Z,6.17
2022-11-04T12:46:47.751Z,6.07
2022-11-04T12:49:41.442Z,6.23
2022-11-04T12:52:17.691Z,5.73
2022-11-04T12:54:56.459Z,5.40
2022-11-04T12:57:30.963Z,6.13
2022-11-04T13:00:24.441Z,5.57
2022-11-04T13:03:15.084Z,5.80
2022-11-04T13:05:58.364Z,6.20
2022-11-04T13:08:33.060Z,6.20
2022-11-04T13:11:22.901Z,5.83
2022-11-04T13:14:01.742Z,5.77
2022-11-04T13:16:34.270Z,6.13
2022-11-04T13:19:02.076Z,6.03
2022-11-04T13:21:35.511Z,5.77
2022-11-04T13:24:17.285Z,5.67
2022-11-04T13:26:44.383Z,6.20
2022-11-04T13:29:16.014Z,5.80
2022-11-04T13:31:54.432Z,5.63
2022-11-04T13:34:36.536Z,5.87
2022-11-04T13:37:25.029Z,5.50
2022-11-04T13:39:51.860Z,5.40
2022-11-04T13:42:35.667Z,6.40
2022-11-04T13:45:11.524Z,5.50
2022-11-04T13:47:48.542Z,5.47
2022-11-04T13:50:39.192Z,5.80
2022-11-04T13:53:10.552Z,5.97
2022-11-04T13:55:49.906Z,5.40
2022-11-04T13:58:27.209Z,5.80
2022-11-04T14:01:31.367Z,6.00
2022-11-04T14:04:25.706Z,5.47
2022-11-04T14:07:00.583Z,5.87
2022-11-04T14:09:30.624Z,5.50
2022-11-04T14:12:17.161Z,6.17
2022-11-04T14:14:53.280Z,6.40
2022-11-04T14:17:35.031Z,6.10
2022-11-04T14:20:46.911Z,5.67
2022-11-04T14:23:23.543Z,5.70
2022-11-04T14:26:13.057Z,5.67
2022-11-04T14:28:43.535Z,5.90
2022-11-04T14:31:17.452Z,6.73
2022-11-04T14:33:57.953Z,6.80
2022-11-04T14:36:25.163Z,6.57
2022-11-04T14:39:02.312Z,6.77
2022-11-04T14:41:29.061Z,7.07
2022-11-04T14:43:59.906Z,7.47
2022-11-04T14:46:32.681Z,6.50
2022-11-04T14:57:26.323Z,6.53
2022-11-04T14:59:53.960Z,7.13
2022-11-04T15:02:45.749Z,7.07
2022-11-04T15:05:39.566Z,7.40
2022-11-04T15:08:29.571Z,7.20
2022-11-04T15:11:17.999Z,7.07
2022-11-04T15:13:49.624Z,7.47
2022-11-04T15:16:18.705Z,7.60
2022-11-04T15:18:46.795Z,7.17
2022-11-04T15:21:14.315Z,7.20
2022-11-04T15:23:45.526Z,7.73
2022-11-04T15:26:30.851Z,8.13
2022-11-04T15:29:01.676Z,7.63
2022-11-04T15:31:39.829Z,7.70
2022-11-04T15:34:14.173Z,7.47
2022-11-04T15:36:43.503Z,7.20
2022-11-04T15:39:16.475Z,6.97
2022-11-04T15:42:03.348Z,8.07
2022-11-04T15:44:33.360Z,7.23
2022-11-04T15:47:20.151Z,7.47
2022-11-04T15:49:49.761Z,8.00
2022-11-04T15:52:25.296Z,7.77
2022-11-04T15:54:54.931Z,7.80
2022-11-04T15:57:38.916Z,7.87
2022-11-04T16:00:09.731Z,8.60
2022-11-04T16:02:44.990Z,8.43
2022-11-04T16:05:11.914Z,8.47
2022-11-04T16:07:46.946Z,8.77
2022-11-04T16:10:31.770Z,8.77
2022-11-04T16:13:03.375Z,8.57
2022-11-04T16:15:41.250Z,8.63
2022-11-04T16:18:21.596Z,9.27
2022-11-04T16:20:53.366Z,9.43
2022-11-04T16:23:26.074Z,8.20
2022-11-04T16:26:02.604Z,8.80
2022-11-04T16:28:31.991Z,8.50
2022-11-04T16:31:01.435Z,9.07
2022-11-04T16:33:28.548Z,8.57
2022-11-04T16:35:57.985Z,9.23
2022-11-04T16:38:27.908Z,9.17
2022-11-04T16:40:54.821Z,9.00
2022-11-04T16:43:22.811Z,9.27
2022-11-04T16:45:53.817Z,9.10
2022-11-04T16:48:23.928Z,9.40
2022-11-04T16:50:50.909Z,9.47
2022-11-04T16:53:17.911Z,9.67
2022-11-04T16:55:45.095Z,9.20
2022-11-04T16:58:17.970Z,8.90
2022-11-04T17:00:44.946Z,9.27
2022-11-04T17:03:22.596Z,10.23
2022-11-04T17:05:56.338Z,9.20
2022-11-04T17:08:26.572Z,9.23
2022-11-04T17:10:54.359Z,8.77
2022-11-04T17:13:21.242Z,9.20
2022-11-04T17:15:48.383Z,9.17
2022-11-04T17:18:16.897Z,9.90
2022-11-04T17:20:46.108Z,9.40
2022-11-04T17:23:14.420Z,10.00
2022-11-04T17:25:41.620Z,9.90
2022-11-04T17:28:08.441Z,10.37
2022-11-04T17:30:35.447Z,9.87
2022-11-04T17:33:06.806Z,10.27
2022-11-04T17:35:41.860Z,9.97
2022-11-04T17:38:11.614Z,9.93
2022-11-04T17:40:59.204Z,9.80
2022-11-04T17:43:44.978Z,10.13
2022-11-04T17:46:31.875Z,10.10
2022-11-04T17:48:59.084Z,10.27
2022-11-04T17:51:26.462Z,10.43
2022-11-04T17:53:53.243Z,10.23
2022-11-04T17:56:22.868Z,9.83
2022-11-04T17:58:50.295Z,10.87
2022-11-04T18:01:21.046Z,10.43
2022-11-04T18:03:48.308Z,11.37
2022-11-04T18:06:15.084Z,11.03
2022-11-04T18:08:42.330Z,10.47
2022-11-04T18:11:11.127Z,10.93
2022-11-04T18:13:38.058Z,10.70
2022-11-04T18:16:14.124Z,10.77
2022-11-04T18:18:41.409Z,10.83
2022-11-04T18:21:09.107Z,11.47
2022-11-04T18:23:37.308Z,10.73
2022-11-04T18:26:09.412Z,11.00
2022-11-04T18:28:39.447Z,10.90
2022-11-04T18:31:10.783Z,10.70
2022-11-04T18:33:38.241Z,11.93
2022-11-04T18:36:06.053Z,10.87
2022-11-04T18:38:33.405Z,11.90
2022-11-04T18:41:04.935Z,10.93
2022-11-04T18:43:31.882Z,11.77
2022-11-04T18:45:58.809Z,10.60
2022-11-04T18:48:26.029Z,11.57
2022-11-04T18:50:52.883Z,11.40
2022-11-04T18:53:25.809Z,11.00
2022-11-04T18:55:53.793Z,11.50
2022-11-04T18:58:20.740Z,11.27
2022-11-04T19:00:47.539Z,11.13
2022-11-04T19:03:14.312Z,10.50
2022-11-04T19:05:44.427Z,11.03
2022-11-04T19:08:11.507Z,11.53
2022-11-04T19:10:58.027Z,10.43
2022-11-04T19:13:26.903Z,10.40
2022-11-04T19:15:54.034Z,10.63
2022-11-04T19:18:20.950Z,10.00
2022-11-04T19:20:47.795Z,11.43
2022-11-04T19:23:14.766Z,10.57
2022-11-04T19:25:58.093Z,10.70
2022-11-04T19:28:37.535Z,10.23
2022-11-04T19:31:10.586Z,10.53
2022-11-04T19:33:37.877Z,9.90
2022-11-04T19:36:06.722Z,10.40
2022-11-04T19:38:33.895Z,11.10
2022-11-04T19:41:06.128Z,10.40
2022-11-04T19:43:33.474Z,10.73
2022-11-04T19:46:04.377Z,9.97
2022-11-04T19:48:31.770Z,10.10
2022-11-04T19:50:58.672Z,10.27
2022-11-04T19:53:28.065Z,10.07
2022-11-04T19:55:55.404Z,10.00
2022-11-04T19:58:24.900Z,9.60
2022-11-04T20:00:52.319Z,9.30
2022-11-04T20:03:19.159Z,10.27
2022-11-04T20:05:46.275Z,10.20
2022-11-04T20:08:13.967Z,10.07
2022-11-04T20:10:43.172Z,10.73
2022-11-04T20:13:34.869Z,9.73
2022-11-04T20:16:03.216Z,9.80
2022-11-04T20:18:30.136Z,10.60
2022-11-04T20:20:57.213Z,9.37
2022-11-04T20:23:24.052Z,9.67
2022-11-04T20:25:50.867Z,9.90
2022-11-04T20:28:17.675Z,9.23
2022-11-04T20:30:44.662Z,10.00
2022-11-04T20:33:11.564Z,9.80
2022-11-04T20:35:38.569Z,9.57
2022-11-04T20:38:05.445Z,10.03
2022-11-04T20:40:32.891Z,9.73
2022-11-04T20:43:01.124Z,9.43
2022-11-04T20:45:28.753Z,9.70
2022-11-04T20:47:55.984Z,8.77
2022-11-04T20:50:22.802Z,9.40
2022-11-04T20:52:49.640Z,8.90
2022-11-04T20:55:16.630Z,9.80
2022-11-04T20:57:43.551Z,9.13
2022-11-04T21:00:13.110Z,8.87
2022-11-04T21:02:40.153Z,9.87
2022-11-04T21:05:07.627Z,9.37
2022-11-04T21:07:36.706Z,9.00
2022-11-04T21:10:04.163Z,9.70
2022-11-04T21:12:31.193Z,9.13
2022-11-04T21:14:58.133Z,9.83
2022-11-04T21:17:25.093Z,9.80
2022-11-04T21:19:53.179Z,10.50
2022-11-04T21:22:19.994Z,10.03
2022-11-04T21:24:47.172Z,9.87
2022-11-04T21:27:14.103Z,10.10
2022-11-04T21:29:41.153Z,9.47
2022-11-04T21:32:08.241Z,9.93
2022-11-04T21:34:35.443Z,10.63
2022-11-04T21:37:02.334Z,10.07
2022-11-04T21:39:29.751Z,10.07
2022-11-04T21:41:56.602Z,10.40
2022-11-04T21:44:23.936Z,10.07
2022-11-04T21:46:51.196Z,9.60
2022-11-04T21:49:18.501Z,9.60
2022-11-04T21:51:45.661Z,10.10
2022-11-04T21:54:12.594Z,10.10
2022-11-04T21:56:39.658Z,9.50
2022-11-04T21:59:06.697Z,10.03
2022-11-04T22:01:34.008Z,10.67
2022-11-04T22:04:02.592Z,10.10
2022-11-04T22:06:34.830Z,10.00
2022-11-04T22:09:04.798Z,9.70
2022-11-04T22:11:33.510Z,9.83
2022-11-04T22:14:03.934Z,10.37
2022-11-04T22:16:33.504Z,9.67
2022-11-04T22:19:05.796Z,9.70
2022-11-04T22:21:33.930Z,10.07
2022-11-04T22:24:02.032Z,10.20
2022-11-04T22:26:31.097Z,10.07
2022-11-04T22:28:59.368Z,9.60
2022-11-04T22:31:29.220Z,9.23
2022-11-04T22:33:56.832Z,9.73
2022-11-04T22:36:24.174Z,9.80
2022-11-04T22:38:51.171Z,10.00
2022-11-04T22:41:36.241Z,9.63
2022-11-04T22:44:03.651Z,10.37
2022-11-04T22:46:32.684Z,8.90
2022-11-04T22:49:02.232Z,10.20
2022-11-04T22:51:31.444Z,9.97
2022-11-04T22:54:03.126Z,9.97
2022-11-04T22:56:34.037Z,9.50
2022-11-04T22:59:01.377Z,10.47
2022-11-04T23:01:28.790Z,9.83
2022-11-04T23:03:55.783Z,10.07
2022-11-04T23:06:23.003Z,9.47
2022-11-04T23:08:52.150Z,10.00
2022-11-04T23:11:45.442Z,10.17
2022-11-04T23:14:32.243Z,10.03
2022-11-04T23:17:37.973Z,10.27
2022-11-04T23:20:09.337Z,10.23
2022-11-04T23:22:54.975Z,10.07
2022-11-04T23:25:22.090Z,10.10
2022-11-04T23:28:10.882Z,10.33
2022-11-04T23:30:46.320Z,11.20
2022-11-04T23:33:15.427Z,10.00
2022-11-04T23:36:06.078Z,11.10
2022-11-04T23:38:33.879Z,10.47
2022-11-04T23:41:22.444Z,10.43
2022-11-04T23:43:49.879Z,9.93
2022-11-04T23:46:41.091Z,10.63
2022-11-04T23:49:29.373Z,10.33
2022-11-04T23:52:14.714Z,10.57
2022-11-04T23:55:00.226Z,10.43
2022-11-04T23:57:50.049Z,10.93
